CheckWX is a tool to help pilots better visualize weather data.  It is not intended as a substitute for an official pre-flight weather briefing.

04:52:09 UTC

KFFL METAR
Fairfield Municipal Airport
Fairfield, Iowa, USA
Current

17 mins ago

KFFL 190435Z AUTO 30017G26KT 10SM CLR M17/M21 A3029 RMK A01
Observed
Jan-19 @ 04:35 UTC
Wind
  • 300° at 17 KTS
  • Gusting to 26 KTS
Visibility
10 SM
Flight Rules
VFR
Cloud Levels
  • Clear skies
Temperature
-17°C / 1°F
Dewpoint
-21°C / -6°F
Humidity
71%
Altimeter
30.29" Hg
Pressure
1025.72 hPa
Previous

37 mins ago

KFFL 190415Z AUTO 30019G26KT 10SM CLR M16/M20 A3028 RMK A01
Observed
Jan-19 @ 04:15 UTC
Wind
  • 300° at 19 KTS
  • Gusting to 26 KTS
Visibility
10 SM
Flight Rules
VFR
Cloud Levels
  • Clear skies
Temperature
-16°C / 3°F
Dewpoint
-20°C / -4°F
Humidity
72%
Altimeter
30.28" Hg
Pressure
1025.42 hPa
Previous

57 mins ago

KFFL 190355Z AUTO 30016G27KT 10SM CLR M16/M21 A3028 RMK A01
Observed
Jan-19 @ 03:55 UTC
Wind
  • 300° at 16 KTS
  • Gusting to 27 KTS
Visibility
10 SM
Flight Rules
VFR
Cloud Levels
  • Clear skies
Temperature
-16°C / 3°F
Dewpoint
-21°C / -6°F
Humidity
66%
Altimeter
30.28" Hg
Pressure
1025.42 hPa